Sparta, Missouri
Current Conditions -  °F | °C
As of 11:52 AM on Wednesday 28 Jan 2015 (Local Time) from KSGF Reporting Station
Clear Clear  
Wind Chill: 57°   Ceiling: Unl
Heat Index: 57°   Visibility: 10mi
Dew Point: 36°   Wind: 22mph
Humidity: 45%   Direction: 160°SSE
Pressure: 30.01"   Gusts: NA
Location:  37°N, 93.08°W
Report Text: KSGF 281752Z 16019KT 10SM CLR 14/02 A3001 RMK AO2 PK WND 17027/1655 SLP163 T01390022 10139 20033 58020
Loading
Personal Weather Stations






























Interactive Weather Map New forecast layout! Learn more

10-Day Weather Forecast

Advertisements
Track Severe Weather on mobile